Barcelona, Spain
Current Conditions -  °F | °C
As of 7:30 AM on Wednesday 28 Jan 2015 (Local Time) from LEBL Reporting Station
Few Clouds Few Clouds  
Wind Chill: 36°   Ceiling: Unl
Heat Index: 41°   Visibility: 6mi
Dew Point: 32°   Wind: 7mph
Humidity: 70%   Direction: 320°NW
Pressure: 30.18"   Gusts: NA
Location:  41.39°N, 2.17°E
Report Text: LEBL 280630Z 32006KT 9999 FEW030 05/00 Q1022 NOSIG
Loading
Personal Weather Stations






























Interactive Weather Map New forecast layout! Learn more

10-Day Weather Forecast

Advertisements
Track Severe Weather on mobile